Time;durP1;ratioP1;P1;durP2;ratioP2;P2;SDS_P1;SDS_P2;PMS_P1;PMS_P2;Temp;Humidity;BMP_temperature;BMP_pressure;BME280_temperature;BME280_humidity;BME280_pressure;Samples;Min_cycle;Max_cycle;Signal;HPM_P1;HPM_P2
2022/11/21 00:01:51;;;;;;;17.27;9.08;;;;;;;-0.04;92.92;100074.77;1729540;82;21606;-62
2022/11/21 00:04:20;;;;;;;19.23;10.03;;;;;;;-0.04;93.01;100083.70;1683421;83;21163;-64
2022/11/21 00:06:53;;;;;;;17.10;8.73;;;;;;;-0.04;92.96;100078.31;1711480;82;21608;-62
2022/11/21 00:09:24;;;;;;;15.85;9.18;;;;;;;-0.05;92.98;100086.03;1704713;83;21156;-62
2022/11/21 00:11:53;;;;;;;16.73;9.60;;;;;;;-0.03;93.06;100085.89;1732742;82;21135;-64
2022/11/21 00:14:23;;;;;;;18.42;9.90;;;;;;;-0.03;92.98;100087.24;1717136;82;21148;-62
2022/11/21 00:16:54;;;;;;;17.75;9.83;;;;;;;-0.08;92.95;100090.84;1718517;82;21131;-62
2022/11/21 00:19:26;;;;;;;18.27;9.88;;;;;;;-0.08;93.06;100080.07;1721574;82;21099;-62
2022/11/21 00:21:56;;;;;;;19.67;10.15;;;;;;;-0.06;93.10;100074.91;1733339;82;21095;-62
2022/11/21 00:24:27;;;;;;;17.70;9.50;;;;;;;-0.05;93.07;100067.67;1723704;82;21143;-63
2022/11/21 00:26:59;;;;;;;16.25;9.10;;;;;;;-0.05;93.08;100059.59;1710987;82;21142;-62
2022/11/21 00:29:30;;;;;;;19.55;10.60;;;;;;;-0.07;93.04;100062.92;1661004;86;21171;-63
2022/11/21 00:31:59;;;;;;;16.95;9.25;;;;;;;-0.09;93.07;100056.83;1710789;83;21216;-63
2022/11/21 00:34:30;;;;;;;19.73;10.18;;;;;;;-0.10;93.08;100043.86;1650149;85;21167;-62
2022/11/21 00:37:07;;;;;;;17.62;9.18;;;;;;;-0.10;93.17;100042.52;1650246;85;21131;-63
2022/11/21 00:39:36;;;;;;;16.65;9.00;;;;;;;-0.07;93.19;100053.50;1649983;86;21600;-61
2022/11/21 00:42:06;;;;;;;19.98;10.08;;;;;;;-0.07;93.29;100054.84;1647714;85;21704;-63
2022/11/21 00:44:36;;;;;;;18.50;9.40;;;;;;;-0.06;93.32;100053.36;1658733;86;21215;-64
2022/11/21 00:47:06;;;;;;;18.75;10.10;;;;;;;-0.03;93.39;100045.50;1660488;83;21163;-62
2022/11/21 00:49:36;;;;;;;20.35;9.73;;;;;;;-0.02;93.37;100038.62;1705589;83;21131;-62
2022/11/21 00:52:06;;;;;;;17.73;8.98;;;;;;;-0.01;93.36;100021.98;1713678;80;21107;-63
2022/11/21 00:54:35;;;;;;;18.70;8.98;;;;;;;-0.07;93.18;100029.27;1764997;80;21138;-63
2022/11/21 00:57:05;;;;;;;22.30;10.38;;;;;;;-0.07;93.35;100014.45;1715184;83;21110;-64
2022/11/21 00:59:34;;;;;;;15.63;8.70;;;;;;;-0.06;93.39;100022.89;1752284;80;21597;-62
2022/11/21 01:02:04;;;;;;;20.85;9.93;;;;;;;-0.03;93.44;100015.88;1691766;83;21126;-63
2022/11/21 01:04:33;;;;;;;20.68;9.65;;;;;;;-0.02;93.44;100017.09;1757359;80;21095;-62
2022/11/21 01:07:03;;;;;;;21.10;11.78;;;;;;;0.03;93.44;100023.93;1757567;80;22119;-62
2022/11/21 01:09:33;;;;;;;18.95;9.28;;;;;;;-0.01;93.33;100024.17;1752034;82;21114;-64
2022/11/21 01:12:02;;;;;;;22.00;9.68;;;;;;;-0.01;93.38;100030.05;1775967;79;21143;-64
2022/11/21 01:14:32;;;;;;;21.40;10.28;;;;;;;-0.03;93.32;100015.88;1778608;80;21632;-62
2022/11/21 01:17:04;;;;;;;19.82;10.32;;;;;;;-0.04;93.24;100020.41;1752630;80;21386;-61
2022/11/21 01:19:36;;;;;;;23.47;10.80;;;;;;;-0.05;93.31;100032.67;1700210;83;21099;-62
2022/11/21 01:22:07;;;;;;;23.35;10.25;;;;;;;-0.06;93.32;100027.78;1699884;83;21129;-63
2022/11/21 01:24:37;;;;;;;21.75;9.63;;;;;;;-0.10;93.23;100034.93;1701237;83;21131;-63
2022/11/21 01:27:07;;;;;;;24.82;10.75;;;;;;;-0.13;93.25;100026.63;1706136;83;21358;-64
2022/11/21 01:29:36;;;;;;;31.00;11.38;;;;;;;-0.15;93.22;100017.84;1713010;83;21155;-63
2022/11/21 01:32:06;;;;;;;21.97;10.93;;;;;;;-0.14;93.35;100020.89;1654265;86;21684;-62
2022/11/21 01:34:34;;;;;;;18.75;8.90;;;;;;;-0.12;93.42;100020.26;1721863;83;21218;-62
2022/11/21 01:37:04;;;;;;;21.90;9.68;;;;;;;-0.10;93.50;100015.59;1708457;83;21167;-61
2022/11/21 01:39:35;;;;;;;23.65;10.08;;;;;;;-0.06;93.57;100004.04;1711008;83;21786;-63
2022/11/21 01:42:05;;;;;;;21.60;9.55;;;;;;;-0.04;93.51;100000.72;1651944;86;21139;-63
2022/11/21 01:44:52;;;;;;;21.48;10.70;;;;;;;-0.04;93.44;99985.91;1746891;80;21120;-63
2022/11/21 01:47:22;;;;;;;27.20;9.93;;;;;;;-0.07;93.34;99983.48;1742898;80;21141;-63
2022/11/21 01:49:52;;;;;;;24.72;10.43;;;;;;;-0.10;93.40;99987.31;1774127;80;21145;-62
2022/11/21 01:52:28;;;;;;;24.32;10.65;;;;;;;-0.09;93.48;99984.98;1762125;80;21137;-64
2022/11/21 01:55:05;;;;;;;23.87;10.53;;;;;;;-0.06;93.43;99984.70;1751399;80;21214;-63
2022/11/21 01:57:39;;;;;;;25.05;10.82;;;;;;;-0.08;93.32;99994.76;1756906;80;21553;-65
2022/11/21 02:00:14;;;;;;;22.40;10.25;;;;;;;-0.08;93.38;100006.02;1752362;80;21280;-63
2022/11/21 02:02:47;;;;;;;24.72;10.58;;;;;;;-0.05;93.43;100011.13;1749320;80;21118;-62
2022/11/21 02:05:22;;;;;;;22.42;10.30;;;;;;;-0.05;93.36;100007.09;1749821;80;21134;-62
2022/11/21 02:07:57;;;;;;;22.95;10.70;;;;;;;-0.03;93.33;99999.72;1713287;82;21629;-61
2022/11/21 02:10:26;;;;;;;22.82;10.08;;;;;;;-0.07;93.17;99999.65;1691562;83;21127;-61
2022/11/21 02:12:57;;;;;;;21.52;10.20;;;;;;;-0.13;93.14;100003.75;1757205;80;21110;-61
2022/11/21 02:15:30;;;;;;;25.82;11.40;;;;;;;-0.15;93.24;100010.27;1749590;80;21153;-62
2022/11/21 02:17:59;;;;;;;23.20;10.48;;;;;;;-0.12;93.38;100019.41;1749426;80;21141;-63
2022/11/21 02:20:28;;;;;;;23.07;10.55;;;;;;;-0.13;93.28;100019.91;1749520;80;21193;-62
2022/11/21 02:23:23;;;;;;;23.00;10.43;;;;;;;-0.14;93.34;100018.20;1764741;80;21532;-62
2022/11/21 02:25:53;;;;;;;23.60;10.68;;;;;;;-0.17;93.31;100012.24;1755592;80;21133;-62
2022/11/21 02:28:22;;;;;;;22.42;10.80;;;;;;;-0.19;93.48;100012.88;1754986;80;21105;-62
2022/11/21 02:30:52;;;;;;;24.15;11.05;;;;;;;-0.18;93.58;100018.12;1740147;80;21102;-63
2022/11/21 02:33:22;;;;;;;21.15;10.53;;;;;;;-0.14;93.62;100014.66;1759757;80;21129;-63
2022/11/21 02:36:01;;;;;;;20.23;10.53;;;;;;;-0.10;93.68;100025.01;1775957;80;21494;-63
2022/11/21 02:38:34;;;;;;;21.25;9.53;;;;;;;-0.08;93.68;100032.95;1773438;80;21534;-63
2022/11/21 02:41:11;;;;;;;22.58;10.60;;;;;;;-0.09;93.71;100034.79;1749396;80;21130;-63
2022/11/21 02:43:53;;;;;;;20.90;9.53;;;;;;;-0.10;93.68;100027.70;1749505;80;21197;-62
2022/11/21 02:46:25;;;;;;;20.15;9.93;;;;;;;-0.07;93.67;100023.87;1705978;83;21159;-62
2022/11/21 02:48:55;;;;;;;21.35;10.53;;;;;;;-0.07;93.73;100016.66;1676994;83;21150;-61
2022/11/21 02:51:23;;;;;;;19.23;9.73;;;;;;;-0.03;93.78;100006.45;1699700;83;21142;-63
2022/11/21 02:53:53;;;;;;;24.40;11.12;;;;;;;-0.03;93.83;100004.61;1699890;83;21600;-65
2022/11/21 02:56:23;;;;;;;23.92;10.53;;;;;;;-0.01;93.74;100008.52;1721319;83;21150;-64
2022/11/21 02:58:52;;;;;;;20.10;10.50;;;;;;;-0.01;93.69;100001.78;1703900;83;21159;-63
2022/11/21 03:01:22;;;;;;;23.67;11.10;;;;;;;0.01;93.68;100007.91;1721029;83;21103;-62
2022/11/21 03:03:51;;;;;;;27.22;11.83;;;;;;;0.02;93.70;100012.30;1727033;82;21166;-67
2022/11/21 03:06:20;;;;;;;24.65;11.05;;;;;;;0.04;93.66;100006.28;1765307;80;21162;-61
2022/11/21 03:08:50;;;;;;;22.05;10.90;;;;;;;0.02;93.60;100004.23;1706958;83;21189;-62
2022/11/21 03:11:19;;;;;;;19.92;10.23;;;;;;;-0.01;93.46;100012.05;1752075;80;21154;-62
2022/11/21 03:13:49;;;;;;;20.48;10.30;;;;;;;-0.02;93.55;100000.08;1752227;80;21142;-64
2022/11/21 03:16:18;;;;;;;18.70;9.88;;;;;;;0.03;93.70;99996.50;1752680;80;21602;-64
2022/11/21 03:18:47;;;;;;;21.05;10.25;;;;;;;0.05;93.67;100007.13;1769616;80;21576;-64
2022/11/21 03:21:18;;;;;;;21.20;9.63;;;;;;;0.06;93.63;100006.99;1674703;84;21131;-62
2022/11/21 03:23:48;;;;;;;21.50;10.28;;;;;;;0.07;93.63;100018.12;1685179;84;21179;-63
2022/11/21 03:26:17;;;;;;;19.42;9.58;;;;;;;0.07;93.62;100024.86;1686373;84;21131;-63
2022/11/21 03:28:46;;;;;;;22.05;10.45;;;;;;;0.07;93.64;100034.28;1679263;84;21159;-62
2022/11/21 03:31:16;;;;;;;21.68;10.60;;;;;;;0.06;93.56;100028.54;1670230;85;21191;-62
2022/11/21 03:33:45;;;;;;;23.57;10.75;;;;;;;0.03;93.52;100027.47;1670193;84;21148;-62
2022/11/21 03:36:13;;;;;;;23.15;10.98;;;;;;;0.04;93.58;100026.48;1670227;84;21195;-63
2022/11/21 03:38:43;;;;;;;23.00;10.72;;;;;;;0.08;93.60;100019.83;1685976;80;21099;-61
2022/11/21 03:41:34;;;;;;;21.30;10.70;;;;;;;0.11;93.59;100020.04;1752105;80;21425;-63
2022/11/21 03:43:43;;;;;;;20.02;10.08;;;;;;;0.09;93.53;100015.29;1743324;80;21569;-64
2022/11/21 03:46:12;;;;;;;24.32;11.35;;;;;;;0.05;93.45;100013.87;1747142;81;21155;-62
2022/11/21 03:48:42;;;;;;;23.25;10.58;;;;;;;0.03;93.49;100022.58;1686829;84;21186;-63
2022/11/21 03:51:12;;;;;;;25.10;11.10;;;;;;;0.07;93.67;100024.00;1744530;81;21181;-63
2022/11/21 03:53:41;;;;;;;23.10;10.53;;;;;;;0.10;93.65;100008.91;1686112;84;21590;-64
2022/11/21 03:56:11;;;;;;;24.65;11.55;;;;;;;0.07;93.56;100003.31;1756515;81;21586;-63
2022/11/21 03:58:43;;;;;;;26.23;11.53;;;;;;;0.07;93.64;100003.31;1743864;81;21153;-64
2022/11/21 04:01:14;;;;;;;24.50;11.43;;;;;;;0.09;93.63;100006.72;1746593;81;21138;-63
2022/11/21 04:03:44;;;;;;;24.25;11.35;;;;;;;0.11;93.66;100000.69;1752243;81;21597;-64
2022/11/21 04:06:17;;;;;;;26.57;11.08;;;;;;;0.11;93.60;100012.81;1744305;81;21111;-63
2022/11/21 04:08:47;;;;;;;27.45;12.05;;;;;;;0.11;93.55;100008.77;1743879;81;21131;-63
2022/11/21 04:11:17;;;;;;;26.68;12.03;;;;;;;0.08;93.50;100004.16;1744433;81;21143;-62
2022/11/21 04:13:47;;;;;;;25.55;12.18;;;;;;;0.04;93.52;100008.98;1689243;84;21138;-63
2022/11/21 04:16:16;;;;;;;25.27;12.55;;;;;;;0.01;93.51;100000.33;1744445;81;21648;-65
2022/11/21 04:18:45;;;;;;;29.23;11.85;;;;;;;0.02;93.62;99997.98;1708018;84;21182;-63
2022/11/21 04:21:14;;;;;;;25.90;12.20;;;;;;;0.05;93.69;99999.91;1754749;80;21561;-62
2022/11/21 04:23:43;;;;;;;27.30;11.48;;;;;;;0.08;93.77;99995.58;1748430;81;21186;-62
2022/11/21 04:26:13;;;;;;;27.00;11.83;;;;;;;0.12;93.87;99993.45;1774240;81;21236;-64
2022/11/21 04:28:42;;;;;;;25.77;11.85;;;;;;;0.16;93.91;99986.30;1745185;81;21179;-63
2022/11/21 04:31:11;;;;;;;25.30;11.53;;;;;;;0.17;93.82;99979.07;1707856;84;21555;-62
2022/11/21 04:33:41;;;;;;;25.68;11.95;;;;;;;0.19;93.76;99976.59;1744234;81;21147;-62
2022/11/21 04:36:11;;;;;;;23.87;11.12;;;;;;;0.16;93.66;99958.52;1688856;82;21167;-62
2022/11/21 04:38:40;;;;;;;33.40;11.93;;;;;;;0.13;93.63;99956.95;1707748;84;21171;-62
2022/11/21 04:41:09;;;;;;;28.47;11.73;;;;;;;0.12;93.72;99963.83;1744294;81;21144;-63
2022/11/21 04:43:39;;;;;;;26.17;11.53;;;;;;;0.15;93.78;99974.32;1696262;84;21118;-63
2022/11/21 04:46:08;;;;;;;23.87;11.03;;;;;;;0.16;93.74;99970.64;1751390;80;21620;-62
2022/11/21 04:48:39;;;;;;;22.42;10.93;;;;;;;0.17;93.71;99969.14;1775155;80;21134;-62
2022/11/21 04:51:08;;;;;;;24.85;11.00;;;;;;;0.19;93.69;99967.66;1783189;80;21115;-62
2022/11/21 04:53:38;;;;;;;24.80;10.85;;;;;;;0.17;93.60;99966.95;1757536;80;21542;-62
2022/11/21 04:56:10;;;;;;;27.62;12.10;;;;;;;0.15;93.59;99971.13;1740804;80;21174;-62
2022/11/21 04:58:40;;;;;;;26.37;11.57;;;;;;;0.14;93.62;99979.35;1757426;80;21110;-62
2022/11/21 05:01:10;;;;;;;26.15;11.75;;;;;;;0.13;93.58;99977.66;1757634;80;21150;-63
2022/11/21 05:03:39;;;;;;;28.23;12.50;;;;;;;0.14;93.65;99968.58;1701392;83;21272;-62
2022/11/21 05:06:08;;;;;;;27.22;12.50;;;;;;;0.12;93.57;99963.34;1692811;83;21129;-61
2022/11/21 05:08:39;;;;;;;26.87;12.25;;;;;;;0.10;93.62;99946.96;1721344;83;21122;-62
2022/11/21 05:13:56;;;;;;;28.05;12.28;;;;;;;0.14;93.69;99953.27;1703890;83;21150;-63
2022/11/21 05:16:26;;;;;;;26.23;11.73;;;;;;;0.14;93.66;99951.07;1703496;83;21115;-62
2022/11/21 05:18:55;;;;;;;26.52;12.15;;;;;;;0.15;93.75;99948.23;1703337;83;21527;-62
2022/11/21 05:21:24;;;;;;;30.52;12.70;;;;;;;0.17;93.79;99932.78;1715494;83;21127;-63
2022/11/21 05:23:53;;;;;;;34.65;13.10;;;;;;;0.16;93.85;99917.61;1703608;83;21155;-61
2022/11/21 05:26:24;;;;;;;31.75;12.78;;;;;;;0.19;93.86;99909.74;1722086;83;21120;-62
2022/11/21 05:28:54;;;;;;;32.63;13.60;;;;;;;0.19;93.87;99907.89;1703123;83;21607;-61
2022/11/21 05:31:23;;;;;;;30.15;13.00;;;;;;;0.19;93.84;99904.35;1703332;83;21143;-63
2022/11/21 05:33:54;;;;;;;32.17;13.22;;;;;;;0.17;93.92;99911.73;1715728;83;21621;-62
2022/11/21 05:36:24;;;;;;;32.23;13.08;;;;;;;0.16;94.06;99916.27;1725272;83;21132;-62
2022/11/21 05:38:53;;;;;;;33.20;12.65;;;;;;;0.19;94.17;99907.05;1704977;83;21221;-63
2022/11/21 05:41:24;;;;;;;32.55;13.10;;;;;;;0.20;94.09;99900.17;1700805;83;21189;-63
2022/11/21 05:43:54;;;;;;;28.85;12.25;;;;;;;0.22;94.11;99899.53;1718860;83;21127;-63
2022/11/21 05:46:24;;;;;;;29.98;12.82;;;;;;;0.25;94.12;99902.43;1725223;83;21143;-62
2022/11/21 05:48:54;;;;;;;29.00;12.58;;;;;;;0.26;94.16;99913.06;1710592;82;21641;-63
2022/11/21 05:51:24;;;;;;;26.77;11.55;;;;;;;0.29;94.18;99918.66;1708415;82;21576;-64
2022/11/21 05:53:52;;;;;;;30.23;12.80;;;;;;;0.27;94.05;99914.77;1721160;82;21183;-62
2022/11/21 05:56:21;;;;;;;26.05;12.18;;;;;;;0.26;93.96;99917.10;1714759;82;21163;-62
2022/11/21 05:58:50;;;;;;;29.07;12.20;;;;;;;0.24;93.84;99916.40;1701302;83;21224;-62
2022/11/21 06:03:25;;;;;;;27.93;11.78;;;;;;;0.20;93.71;99919.03;1716191;82;21174;-64
2022/11/21 06:03:50;;;;;;;26.45;12.73;;;;;;;0.22;93.85;99921.08;1749551;80;21262;-63
2022/11/21 06:06:19;;;;;;;30.85;12.50;;;;;;;0.22;93.72;99922.42;1752327;80;22457;-63
2022/11/21 06:08:53;;;;;;;29.32;12.82;;;;;;;0.22;93.72;99908.11;1752013;80;21154;-63
2022/11/21 06:11:22;;;;;;;31.02;12.70;;;;;;;0.26;93.75;99906.33;1780149;80;21585;-63
2022/11/21 06:13:52;;;;;;;27.82;12.20;;;;;;;0.30;93.75;99909.58;1773131;80;21537;-62
2022/11/21 06:16:21;;;;;;;29.10;12.28;;;;;;;0.33;93.73;99912.48;1752005;80;21182;-63
2022/11/21 06:18:51;;;;;;;27.58;12.18;;;;;;;0.34;93.67;99919.58;1715423;83;21123;-62
2022/11/21 06:21:25;;;;;;;30.25;13.20;;;;;;;0.34;93.68;99926.31;1764959;80;21131;-63
2022/11/21 06:23:56;;;;;;;27.42;12.35;;;;;;;0.35;93.67;99918.08;1782190;80;21535;-63
2022/11/21 06:26:26;;;;;;;28.00;12.78;;;;;;;0.41;93.72;99932.82;1779963;80;21182;-62
2022/11/21 06:28:56;;;;;;;23.75;11.30;;;;;;;0.41;93.71;99914.81;1782251;80;21527;-63
2022/11/21 06:31:27;;;;;;;22.32;11.73;;;;;;;0.45;93.76;99916.22;1769368;80;21100;-65
2022/11/21 06:33:58;;;;;;;25.57;11.93;;;;;;;0.45;93.60;99931.54;1752068;80;21146;-62
2022/11/21 06:36:28;;;;;;;26.57;12.05;;;;;;;0.42;93.47;99930.48;1704405;83;21169;-63
2022/11/21 06:38:58;;;;;;;25.85;10.98;;;;;;;0.43;93.45;99930.83;1752027;80;21143;-64
2022/11/21 06:41:30;;;;;;;27.73;11.85;;;;;;;0.40;93.32;99929.77;1693164;83;21169;-62
2022/11/21 06:44:01;;;;;;;26.02;11.93;;;;;;;0.39;93.33;99919.99;1769435;79;21147;-64
2022/11/21 06:46:30;;;;;;;26.52;12.18;;;;;;;0.35;93.29;99915.39;1779144;80;21115;-65
2022/11/21 06:48:59;;;;;;;28.17;12.15;;;;;;;0.33;93.37;99931.34;1761362;81;21147;-64
2022/11/21 06:51:30;;;;;;;28.12;12.28;;;;;;;0.34;93.38;99937.09;1764944;81;21147;-64
2022/11/21 06:54:00;;;;;;;25.57;12.15;;;;;;;0.34;93.36;99939.78;1769889;81;21111;-63
2022/11/21 06:56:31;;;;;;;26.00;11.45;;;;;;;0.36;93.37;99929.71;1700062;84;21154;-65
2022/11/21 06:59:01;;;;;;;29.05;13.35;;;;;;;0.33;93.27;99916.53;1745538;81;21575;-63
2022/11/21 07:01:32;;;;;;;26.27;12.68;;;;;;;0.31;93.36;99916.17;1766567;80;21575;-65
2022/11/21 07:04:03;;;;;;;31.00;13.32;;;;;;;0.31;93.43;99905.39;1743687;81;21127;-64
2022/11/21 07:06:35;;;;;;;28.47;12.13;;;;;;;0.31;93.49;99918.02;1763329;81;21163;-65
2022/11/21 07:09:04;;;;;;;27.62;11.90;;;;;;;0.29;93.44;99918.16;1761376;81;21111;-64
2022/11/21 07:11:36;;;;;;;25.17;12.25;;;;;;;0.26;93.47;99918.45;1772290;81;21107;-65
2022/11/21 07:14:06;;;;;;;27.37;12.25;;;;;;;0.26;93.50;99930.58;1761758;81;21127;-62
2022/11/21 07:16:39;;;;;;;24.82;11.30;;;;;;;0.27;93.62;99928.23;1749645;81;21071;-63
2022/11/21 07:19:10;;;;;;;27.67;12.23;;;;;;;0.30;93.73;99929.79;1773988;81;21112;-63
2022/11/21 07:21:41;;;;;;;30.43;12.40;;;;;;;0.35;93.81;99931.55;1743982;81;21174;-63
2022/11/21 07:24:13;;;;;;;27.77;12.23;;;;;;;0.40;93.86;99942.75;1707672;82;21130;-64
2022/11/21 07:26:42;;;;;;;24.12;11.50;;;;;;;0.44;93.85;99943.31;1769150;81;21151;-63
2022/11/21 07:29:12;;;;;;;27.22;12.63;;;;;;;0.47;93.96;99943.02;1744579;81;21107;-64
2022/11/21 07:31:43;;;;;;;31.15;12.00;;;;;;;0.45;93.83;99945.02;1603051;88;21251;-64
2022/11/21 07:34:14;;;;;;;29.30;12.70;;;;;;;0.44;93.87;99931.19;1613865;88;21188;-63
2022/11/21 07:36:45;;;;;;;32.83;14.30;;;;;;;0.43;93.81;99926.30;1614317;88;21196;-63
2022/11/21 07:39:16;;;;;;;24.82;11.85;;;;;;;0.43;93.87;99932.18;1614972;88;21260;-64
2022/11/21 07:41:46;;;;;;;24.63;11.97;;;;;;;0.44;94.04;99926.64;1610350;88;21184;-63
2022/11/21 07:44:16;;;;;;;28.65;12.93;;;;;;;0.49;94.08;99927.56;1668818;84;21562;-64
2022/11/21 07:46:47;;;;;;;29.48;12.07;;;;;;;0.52;94.12;99924.08;1680032;84;21135;-63
2022/11/21 07:49:16;;;;;;;30.30;13.28;;;;;;;0.53;94.05;99924.92;1713507;80;21099;-63
2022/11/21 07:51:45;;;;;;;28.20;12.82;;;;;;;0.51;94.02;99925.57;1773498;79;21135;-63
2022/11/21 07:54:15;;;;;;;24.40;11.93;;;;;;;0.51;94.04;99915.64;1752997;81;21605;-64
2022/11/21 07:56:45;;;;;;;40.33;13.50;;;;;;;0.51;94.10;99905.36;1744480;81;21511;-64
2022/11/21 07:59:14;;;;;;;26.82;12.90;;;;;;;0.51;94.17;99905.36;1744440;81;21131;-64
2022/11/21 08:01:43;;;;;;;27.95;11.35;;;;;;;0.52;94.21;99901.67;1695041;84;21603;-63
2022/11/21 08:04:14;;;;;;;28.77;12.73;;;;;;;0.52;94.23;99898.47;1662293;84;21123;-64
2022/11/21 08:06:44;;;;;;;24.90;11.22;;;;;;;0.51;94.26;99890.53;1744317;81;21504;-62
2022/11/21 08:09:14;;;;;;;24.40;11.57;;;;;;;0.54;94.31;99891.09;1690291;84;21114;-64
2022/11/21 08:11:44;;;;;;;24.43;11.75;;;;;;;0.54;94.31;99891.09;1744450;81;21095;-64
2022/11/21 08:14:14;;;;;;;25.77;11.88;;;;;;;0.57;94.31;99902.08;1744289;81;21580;-63
2022/11/21 08:16:42;;;;;;;28.07;12.80;;;;;;;0.57;94.27;99885.91;1707746;84;21201;-64
2022/11/21 08:19:13;;;;;;;24.43;10.60;;;;;;;0.56;94.25;99891.80;1744217;81;21107;-64
2022/11/21 08:21:41;;;;;;;24.82;11.28;;;;;;;0.56;94.23;99903.08;1697718;84;21162;-62
2022/11/21 08:24:13;;;;;;;24.65;12.10;;;;;;;0.56;94.16;99899.03;1755781;81;21586;-62
2022/11/21 08:26:42;;;;;;;25.80;11.53;;;;;;;0.56;94.18;99903.92;1744256;81;21143;-62
2022/11/21 08:29:14;;;;;;;23.40;11.08;;;;;;;0.58;94.17;99907.81;1744059;81;21198;-64
2022/11/21 08:31:45;;;;;;;22.77;11.28;;;;;;;0.53;94.03;99910.11;1707838;84;21538;-62
2022/11/21 08:34:15;;;;;;;26.37;12.18;;;;;;;0.52;94.08;99912.45;1748151;81;21244;-63
2022/11/21 08:36:44;;;;;;;28.30;12.50;;;;;;;0.50;94.12;99913.94;1773950;81;21198;-62
2022/11/21 08:39:13;;;;;;;36.15;15.48;;;;;;;0.52;94.15;99923.23;1761357;81;21108;-63
2022/11/21 08:44:34;;;;;;;30.12;13.05;;;;;;;0.53;94.23;99900.67;1750925;81;21092;-63
2022/11/21 08:47:05;;;;;;;32.05;13.40;;;;;;;0.55;94.28;99896.83;1748947;81;21167;-63
2022/11/21 08:49:35;;;;;;;28.77;12.58;;;;;;;0.56;94.18;99888.25;1700560;83;21134;-64
2022/11/21 08:52:07;;;;;;;29.07;12.90;;;;;;;0.56;94.18;99874.27;1757034;79;21148;-65
2022/11/21 08:54:38;;;;;;;34.88;12.55;;;;;;;0.60;94.15;99875.68;1755109;81;21143;-63
2022/11/21 08:57:07;;;;;;;27.13;11.95;;;;;;;0.61;94.08;99870.64;1693894;84;21189;-62
2022/11/21 08:59:37;;;;;;;29.70;13.00;;;;;;;0.66;94.15;99877.47;1746634;81;21551;-62
2022/11/21 09:02:08;;;;;;;30.75;13.75;;;;;;;0.69;94.31;99873.98;1756808;81;21155;-63
2022/11/21 09:04:38;;;;;;;27.50;12.88;;;;;;;0.71;94.21;99876.03;1744255;81;21155;-62
2022/11/21 09:07:07;;;;;;;28.07;12.55;;;;;;;0.74;94.25;99869.49;1692218;84;21207;-63
2022/11/21 09:09:37;;;;;;;31.20;13.55;;;;;;;0.74;94.09;99861.40;1768971;80;21555;-62
2022/11/21 09:12:07;;;;;;;24.57;12.50;;;;;;;0.75;94.12;99853.66;1743954;81;21609;-62
2022/11/21 09:20:14;;;;;;;30.17;12.58;;;;;;;0.75;93.91;99869.34;1686590;83;21158;-62
2022/11/21 09:22:44;;;;;;;30.70;13.03;;;;;;;0.73;93.82;99861.90;1707323;84;21122;-64
2022/11/21 09:25:17;;;;;;;29.40;13.20;;;;;;;0.72;93.82;99852.11;1743962;81;21535;-61
2022/11/21 09:27:48;;;;;;;26.10;12.25;;;;;;;0.76;93.88;99866.14;1679701;84;21158;-60
2022/11/21 09:30:17;;;;;;;28.05;12.00;;;;;;;0.75;93.81;99879.28;1744157;81;21171;-61
2022/11/21 09:32:47;;;;;;;25.90;12.55;;;;;;;0.76;93.75;99882.33;1688470;84;21178;-65
2022/11/21 09:35:17;;;;;;;31.15;15.45;;;;;;;0.76;93.66;99873.73;1765816;81;21151;-62
2022/11/21 09:37:46;;;;;;;26.23;12.35;;;;;;;0.76;93.51;99879.13;1769980;81;22216;-62
2022/11/21 09:40:18;;;;;;;28.75;13.00;;;;;;;0.75;93.49;99880.13;1743764;81;21158;-63
2022/11/21 09:43:34;;;;;;;28.47;12.70;;;;;;;0.77;93.50;99872.74;1681038;84;21150;-62
2022/11/21 09:46:15;;;;;;;32.25;13.30;;;;;;;0.79;93.53;99869.89;1743593;81;21193;-62
2022/11/21 09:48:58;;;;;;;35.10;14.98;;;;;;;0.78;93.44;99860.95;1682492;84;21338;-63
2022/11/21 09:51:29;;;;;;;33.20;14.33;;;;;;;0.80;93.48;99864.35;1707800;84;21134;-61
2022/11/21 09:54:07;;;;;;;30.33;13.07;;;;;;;0.81;93.35;99859.31;1744239;81;21237;-63
2022/11/21 09:56:37;;;;;;;;;;;;;;;0.81;93.28;99849.02;1677553;84;21095;-61
2022/11/21 09:59:29;;;;;;;26.70;12.73;;;;;;;0.82;93.38;99847.53;1703075;83;20281;-62
2022/11/21 10:01:58;;;;;;;27.13;11.48;;;;;;;0.85;93.48;99853.97;1672987;84;21165;-61
2022/11/21 10:04:29;;;;;;;26.23;11.48;;;;;;;0.89;93.53;99854.52;1744088;81;21566;-62
2022/11/21 10:07:12;;;;;;;22.00;10.80;;;;;;;0.90;93.37;99853.02;1664142;84;21131;-62
2022/11/21 10:10:22;;;;;;;17.85;9.05;;;;;;;0.91;93.30;99851.17;1708037;84;21150;-61
2022/11/21 10:13:25;;;;;;;18.77;9.45;;;;;;;0.93;93.29;99841.09;1755626;81;21186;-61
2022/11/21 15:07:43;;;;;;;14.28;10.18;;;;;;;0.99;100.00;99281.36;1771499;80;28288;-64
2022/11/21 15:10:17;;;;;;;10.48;6.40;;;;;;;1.00;100.00;99286.59;1713431;83;21591;-66
2022/11/21 15:12:54;;;;;;;11.50;6.28;;;;;;;1.02;100.00;99276.98;1691901;82;21192;-66
2022/11/21 15:15:38;;;;;;;17.87;7.70;;;;;;;1.05;100.00;99283.39;1693042;83;21106;-67
2022/11/21 15:18:23;;;;;;;17.75;8.35;;;;;;;1.06;100.00;99283.23;1671890;85;21109;-66
2022/11/21 15:21:02;;;;;;;13.08;6.78;;;;;;;1.03;99.89;99275.97;1642579;86;21611;-65
2022/11/21 15:23:42;;;;;;;15.63;7.95;;;;;;;1.03;99.84;99286.26;1618785;86;21158;-65
2022/11/21 15:26:34;;;;;;;17.23;8.33;;;;;;;1.04;99.82;99285.25;1658550;86;21252;-67
2022/11/21 15:29:20;;;;;;;14.47;6.85;;;;;;;1.07;99.83;99276.83;1702212;83;21277;-63
2022/11/21 15:32:08;;;;;;;13.18;6.75;;;;;;;1.14;99.87;99283.25;1719170;83;21170;-65
2022/11/21 15:34:42;;;;;;;12.03;6.40;;;;;;;1.18;99.83;99285.11;1696758;83;21126;-67
2022/11/21 15:37:22;;;;;;;13.05;5.97;;;;;;;1.22;99.82;99279.22;1684617;83;21611;-67
2022/11/21 15:39:55;;;;;;;13.20;6.53;;;;;;;1.24;99.69;99277.70;1692178;83;21121;-65
2022/11/21 15:42:35;;;;;;;10.20;6.17;;;;;;;1.25;99.62;99274.84;1693079;82;21564;-66
2022/11/21 15:45:20;;;;;;;10.75;5.62;;;;;;;1.26;99.51;99261.70;1701022;82;21181;-66
2022/11/21 15:47:51;;;;;;;10.25;6.05;;;;;;;1.27;99.44;99250.40;1763487;81;21099;-66
2022/11/21 15:50:23;;;;;;;17.70;9.15;;;;;;;1.31;99.35;99252.29;1786617;80;21146;-67
2022/11/21 15:52:54;;;;;;;10.50;6.50;;;;;;;1.29;99.18;99234.89;1780253;80;21173;-67
2022/11/21 15:55:29;;;;;;;12.80;6.25;;;;;;;1.28;99.11;99223.75;1778126;80;21115;-69
2022/11/21 15:58:00;;;;;;;10.48;5.58;;;;;;;1.25;98.95;99216.84;1774810;80;21083;-68
2022/11/21 16:00:31;;;;;;;9.70;6.03;;;;;;;1.24;98.89;99207.06;1781934;80;21540;-69
2022/11/21 16:03:00;;;;;;;11.48;6.40;;;;;;;1.25;98.95;99191.20;1765133;81;21182;-71
2022/11/21 16:05:31;;;;;;;12.63;6.62;;;;;;;1.24;98.81;99173.84;1752839;80;21569;-72
2022/11/21 16:08:04;;;;;;;12.00;6.50;;;;;;;1.24;98.78;99177.89;1756939;80;21616;-68
2022/11/21 16:10:36;;;;;;;10.78;6.53;;;;;;;1.23;98.79;99167.61;1685669;84;21101;-69
2022/11/21 16:13:08;;;;;;;12.18;6.33;;;;;;;1.26;98.80;99169.13;1680705;85;21170;-68
2022/11/21 16:15:39;;;;;;;11.60;6.30;;;;;;;1.26;98.69;99169.96;1685300;85;21205;-68
2022/11/21 16:18:09;;;;;;;12.33;6.70;;;;;;;1.25;98.53;99159.34;1676566;84;21177;-70
2022/11/21 16:20:41;;;;;;;10.05;6.50;;;;;;;1.23;98.39;99153.27;1678130;84;21142;-68
2022/11/21 19:47:13;;;;;;;7.72;5.55;;;;;;;1.16;100.00;98978.28;1854304;76;27963;-69
2022/11/21 19:49:44;;;;;;;10.18;6.20;;;;;;;1.13;100.00;98988.06;1861589;76;21563;-69
2022/11/21 19:52:14;;;;;;;10.18;6.58;;;;;;;1.16;100.00;98989.07;1911228;74;21082;-70
2022/11/21 19:54:44;;;;;;;11.00;6.72;;;;;;;1.18;100.00;98987.87;1875417;76;21094;-71
2022/11/21 19:57:14;;;;;;;11.80;7.10;;;;;;;1.20;100.00;98985.02;1850784;76;21521;-68
2022/11/21 19:59:44;;;;;;;13.30;7.00;;;;;;;1.23;100.00;98996.30;1884933;76;21098;-70
2022/11/21 20:02:18;;;;;;;12.68;6.95;;;;;;;1.24;100.00;98994.44;1882631;75;21146;-71
2022/11/21 20:04:48;;;;;;;11.88;7.33;;;;;;;1.25;100.00;98999.66;1890517;75;21094;-69
2022/11/21 20:07:19;;;;;;;11.60;7.28;;;;;;;1.27;100.00;98995.45;1884465;75;21129;-70
2022/11/21 20:09:50;;;;;;;12.55;6.62;;;;;;;1.30;100.00;98992.44;1880466;76;21173;-72